createdAt,value
2022-09-21T00:01:37.526Z,97349.88
2022-09-21T00:04:05.800Z,97350.00
2022-09-21T00:06:35.731Z,97347.81
2022-09-21T00:09:05.129Z,97353.69
2022-09-21T00:11:34.350Z,97355.38
2022-09-21T00:14:07.984Z,97356.03
2022-09-21T00:16:38.202Z,97351.94
2022-09-21T00:19:07.141Z,97352.31
2022-09-21T00:21:36.087Z,97345.81
2022-09-21T00:24:04.359Z,97349.72
2022-09-21T00:26:33.090Z,97349.41
2022-09-21T00:29:03.782Z,97350.22
2022-09-21T00:31:32.772Z,97353.84
2022-09-21T00:34:03.550Z,97350.41
2022-09-21T00:36:31.686Z,97353.56
2022-09-21T00:39:02.736Z,97345.59
2022-09-21T00:41:33.988Z,97348.78
2022-09-21T00:44:31.689Z,97349.50
2022-09-21T00:47:05.496Z,97348.69
2022-09-21T00:49:41.050Z,97351.31
2022-09-21T00:52:12.044Z,97352.97
2022-09-21T00:54:46.182Z,97346.06
2022-09-21T00:57:16.842Z,97352.69
2022-09-21T00:59:46.257Z,97351.69
2022-09-21T01:02:15.289Z,97354.34
2022-09-21T01:04:46.091Z,97354.69
2022-09-21T01:07:20.036Z,97349.44
2022-09-21T01:09:53.375Z,97350.16
2022-09-21T01:12:40.642Z,97352.50
2022-09-21T01:15:26.746Z,97347.59
2022-09-21T01:18:05.981Z,97349.88
2022-09-21T01:21:09.905Z,97345.44
2022-09-21T01:24:19.821Z,97356.50
2022-09-21T01:27:47.573Z,97357.84
2022-09-21T01:30:20.134Z,97352.78
2022-09-21T01:32:53.697Z,97355.06
2022-09-21T01:35:27.720Z,97353.97
2022-09-21T01:37:59.878Z,97351.53
2022-09-21T01:40:36.024Z,97358.22
2022-09-21T01:43:08.048Z,97362.09
2022-09-21T01:45:42.727Z,97357.44
2022-09-21T01:48:11.630Z,97360.06
2022-09-21T01:50:46.771Z,97353.19
2022-09-21T01:53:22.481Z,97355.50
2022-09-21T01:55:54.352Z,97362.53
2022-09-21T01:58:32.000Z,97355.34
2022-09-21T02:01:02.029Z,97359.44
2022-09-21T02:03:37.127Z,97365.75
2022-09-21T02:06:06.922Z,97358.97
2022-09-21T02:08:35.547Z,97364.84
2022-09-21T02:11:05.637Z,97360.69
2022-09-21T02:13:39.589Z,97357.88
2022-09-21T02:16:37.091Z,97363.88
2022-09-21T02:19:14.120Z,97361.97
2022-09-21T02:21:58.278Z,97365.50
2022-09-21T02:24:40.024Z,97353.56
2022-09-21T02:27:16.855Z,97356.91
2022-09-21T02:29:52.757Z,97352.91
2022-09-21T02:32:35.155Z,97350.56
2022-09-21T02:35:09.164Z,97354.19
2022-09-21T02:37:44.883Z,97349.09
2022-09-21T02:40:24.678Z,97351.22
2022-09-21T02:42:59.446Z,97343.50
2022-09-21T02:45:32.899Z,97350.81
2022-09-21T02:48:08.819Z,97341.06
2022-09-21T02:50:43.452Z,97341.59
2022-09-21T02:53:13.606Z,97343.22
2022-09-21T02:55:42.231Z,97347.66
2022-09-21T02:58:13.514Z,97350.47
2022-09-21T03:00:41.901Z,97347.41
2022-09-21T03:03:20.050Z,97349.56
2022-09-21T03:05:51.817Z,97338.63
2022-09-21T03:08:20.687Z,97341.59
2022-09-21T03:10:50.038Z,97334.72
2022-09-21T03:13:18.752Z,97336.91
2022-09-21T03:15:47.226Z,97333.72
2022-09-21T03:18:17.086Z,97335.16
2022-09-21T03:20:47.009Z,97340.31
2022-09-21T03:23:15.715Z,97337.34
2022-09-21T03:25:46.017Z,97349.47
2022-09-21T03:28:15.273Z,97344.78
2022-09-21T03:30:43.829Z,97347.59
2022-09-21T03:33:12.856Z,97346.66
2022-09-21T03:35:42.614Z,97349.03
2022-09-21T03:38:11.015Z,97357.25
2022-09-21T03:40:39.140Z,97351.16
2022-09-21T03:43:07.239Z,97352.00
2022-09-21T03:45:35.959Z,97350.03
2022-09-21T03:48:04.306Z,97350.22
2022-09-21T03:50:32.279Z,97352.38
2022-09-21T03:53:01.775Z,97356.47
2022-09-21T03:55:29.747Z,97356.38
2022-09-21T03:57:57.819Z,97364.25
2022-09-21T04:00:30.196Z,97361.34
2022-09-21T04:02:58.338Z,97365.66
2022-09-21T04:05:27.675Z,97362.31
2022-09-21T04:07:57.345Z,97369.22
2022-09-21T04:10:33.083Z,97367.22
2022-09-21T04:13:03.396Z,97368.47
2022-09-21T04:15:32.053Z,97364.34
2022-09-21T04:18:00.221Z,97362.88
2022-09-21T04:20:28.391Z,97371.09
2022-09-21T04:22:56.387Z,97366.03
2022-09-21T04:25:25.897Z,97369.22
2022-09-21T04:27:54.373Z,97374.72
2022-09-21T04:30:22.337Z,97373.63
2022-09-21T04:32:50.387Z,97371.72
2022-09-21T04:35:18.537Z,97370.06
2022-09-21T04:37:46.544Z,97376.97
2022-09-21T04:40:14.607Z,97376.59
2022-09-21T04:42:43.945Z,97381.84
2022-09-21T04:45:12.468Z,97380.06
2022-09-21T04:47:40.533Z,97375.44
2022-09-21T04:50:10.064Z,97384.91
2022-09-21T04:52:38.121Z,97379.13
2022-09-21T04:55:07.448Z,97383.44
2022-09-21T04:57:36.333Z,97386.78
2022-09-21T05:00:08.135Z,97384.09
2022-09-21T05:02:36.213Z,97384.16
2022-09-21T05:05:04.524Z,97391.84
2022-09-21T05:07:32.519Z,97395.88
2022-09-21T05:10:05.393Z,97396.75
2022-09-21T05:12:34.259Z,97404.47
2022-09-21T05:15:02.942Z,97396.16
2022-09-21T05:17:32.303Z,97401.56
2022-09-21T05:20:00.422Z,97414.06
2022-09-21T05:22:29.521Z,97402.06
2022-09-21T05:24:57.646Z,97407.47
2022-09-21T05:27:25.773Z,97398.94
2022-09-21T05:29:54.686Z,97401.56
2022-09-21T05:32:28.784Z,97397.44
2022-09-21T05:35:13.782Z,97407.16
2022-09-21T05:37:52.849Z,97411.00
2022-09-21T05:40:22.125Z,97411.66
2022-09-21T05:42:51.112Z,97407.88
2022-09-21T05:45:22.978Z,97411.84
2022-09-21T05:48:12.147Z,97418.69
2022-09-21T05:50:53.993Z,97415.09
2022-09-21T05:53:49.715Z,97408.88
2022-09-21T05:56:39.674Z,97415.41
2022-09-21T05:59:29.390Z,97415.34
2022-09-21T06:02:07.853Z,97422.84
2022-09-21T06:04:36.747Z,97422.03
2022-09-21T06:07:06.134Z,97419.97
2022-09-21T06:09:34.193Z,97412.78
2022-09-21T06:12:02.570Z,97416.84
2022-09-21T06:14:30.608Z,97421.84
2022-09-21T06:16:58.861Z,97416.72
2022-09-21T06:19:26.992Z,97425.88
2022-09-21T06:21:55.236Z,97425.53
2022-09-21T06:24:25.382Z,97422.50
2022-09-21T06:26:53.544Z,97428.38
2022-09-21T06:29:23.632Z,97434.66
2022-09-21T06:31:52.003Z,97425.53
2022-09-21T06:34:20.046Z,97424.53
2022-09-21T06:36:48.123Z,97429.34
2022-09-21T06:39:16.266Z,97428.91
2022-09-21T06:41:45.566Z,97422.94
2022-09-21T06:44:13.519Z,97434.25
2022-09-21T06:46:41.530Z,97428.81
2022-09-21T06:49:09.605Z,97433.63
2022-09-21T06:51:37.627Z,97424.81
2022-09-21T06:54:06.422Z,97429.97
2022-09-21T06:56:34.417Z,97420.28
2022-09-21T06:59:03.837Z,97425.97
2022-09-21T07:01:31.953Z,97429.41
2022-09-21T07:04:00.086Z,97429.97
2022-09-21T07:06:29.343Z,97421.97
2022-09-21T07:11:47.329Z,97422.81
2022-09-21T07:14:16.689Z,97425.78
2022-09-21T07:16:45.167Z,97426.91
2022-09-21T07:19:13.212Z,97430.31
2022-09-21T07:21:41.281Z,97426.50
2022-09-21T07:24:12.512Z,97428.16
2022-09-21T07:26:42.163Z,97431.31
2022-09-21T07:29:10.308Z,97444.03
2022-09-21T07:31:39.884Z,97441.56
2022-09-21T07:34:12.253Z,97440.53
2022-09-21T07:36:40.284Z,97430.44
2022-09-21T07:39:10.505Z,97439.88
2022-09-21T07:41:38.796Z,97439.25
2022-09-21T07:44:06.934Z,97441.91
2022-09-21T07:46:36.084Z,97440.34
2022-09-21T07:49:06.629Z,97445.53
2022-09-21T07:51:36.697Z,97447.22
2022-09-21T07:54:05.023Z,97443.84
2022-09-21T07:56:33.007Z,97448.13
2022-09-21T07:59:06.781Z,97448.78
2022-09-21T08:01:36.610Z,97447.34
2022-09-21T08:04:08.322Z,97447.97
2022-09-21T08:06:40.060Z,97446.72
2022-09-21T08:09:08.555Z,97443.13
2022-09-21T08:11:38.339Z,97446.75
2022-09-21T08:14:06.566Z,97447.59
2022-09-21T08:16:35.826Z,97450.25
2022-09-21T08:19:06.059Z,97448.88
2022-09-21T08:21:34.461Z,97448.44
2022-09-21T08:24:02.937Z,97454.78
2022-09-21T08:26:30.978Z,97445.22
2022-09-21T08:28:59.207Z,97451.53
2022-09-21T08:31:27.686Z,97444.22
2022-09-21T08:33:57.581Z,97443.22
2022-09-21T08:36:27.106Z,97440.03
2022-09-21T08:38:56.747Z,97445.91
2022-09-21T08:41:30.087Z,97444.91
2022-09-21T08:44:04.641Z,97450.97
2022-09-21T08:46:35.032Z,97455.44
2022-09-21T08:49:08.135Z,97450.59
2022-09-21T08:51:46.014Z,97435.69
2022-09-21T08:54:21.899Z,97445.09
2022-09-21T08:57:04.564Z,97442.59
2022-09-21T08:59:34.412Z,97438.72
2022-09-21T09:02:19.092Z,97430.38
2022-09-21T09:05:01.044Z,97427.31
2022-09-21T09:08:00.652Z,97433.56
2022-09-21T09:10:39.000Z,97431.50
2022-09-21T09:13:31.160Z,97433.75
2022-09-21T09:16:13.672Z,97441.09
2022-09-21T09:18:48.049Z,97431.66
2022-09-21T09:21:29.850Z,97433.31
2022-09-21T09:24:05.312Z,97430.25
2022-09-21T09:26:42.667Z,97428.19
2022-09-21T09:29:23.383Z,97429.31
2022-09-21T09:31:55.375Z,97432.00
2022-09-21T09:34:31.347Z,97433.56
2022-09-21T09:37:06.764Z,97429.47
2022-09-21T09:39:36.247Z,97428.59
2022-09-21T09:42:22.878Z,97426.31
2022-09-21T09:45:22.539Z,97431.72
2022-09-21T09:48:34.366Z,97419.88
2022-09-21T09:51:02.512Z,97417.38
2022-09-21T09:53:31.609Z,97408.91
2022-09-21T09:56:02.632Z,97415.81
2022-09-21T09:58:42.426Z,97413.00
2022-09-21T10:01:10.607Z,97404.78
2022-09-21T10:03:38.676Z,97399.75
2022-09-21T10:06:07.973Z,97403.66
2022-09-21T10:08:46.453Z,97401.81
2022-09-21T10:11:17.706Z,97398.28
2022-09-21T10:13:48.563Z,97394.84
2022-09-21T10:16:22.697Z,97392.41
2022-09-21T10:18:56.435Z,97393.81
2022-09-21T10:21:27.279Z,97393.97
2022-09-21T10:24:00.268Z,97392.59
2022-09-21T10:26:37.734Z,97391.28
2022-09-21T10:29:21.752Z,97390.34
2022-09-21T10:31:57.276Z,97391.03
2022-09-21T10:34:27.827Z,97385.66
2022-09-21T10:36:58.163Z,97392.09
2022-09-21T10:39:29.706Z,97389.91
2022-09-21T10:42:04.388Z,97380.38
2022-09-21T10:44:41.331Z,97388.94
2022-09-21T10:47:21.374Z,97387.16
2022-09-21T10:49:52.967Z,97389.97
2022-09-21T10:52:25.663Z,97376.19
2022-09-21T10:54:57.089Z,97376.75
2022-09-21T10:57:28.910Z,97376.31
2022-09-21T10:59:57.559Z,97374.09
2022-09-21T11:02:34.858Z,97369.53
2022-09-21T11:05:15.283Z,97376.47
2022-09-21T11:07:50.733Z,97370.84
2022-09-21T11:10:25.198Z,97366.34
2022-09-21T11:13:12.600Z,97371.84
2022-09-21T11:15:57.057Z,97374.03
2022-09-21T11:18:40.343Z,97382.47
2022-09-21T11:21:18.744Z,97368.31
2022-09-21T11:24:03.110Z,97374.69
2022-09-21T11:26:40.666Z,97366.94
2022-09-21T11:29:19.035Z,97367.97
2022-09-21T11:32:09.047Z,97364.75
2022-09-21T11:35:03.635Z,97355.44
2022-09-21T11:37:51.138Z,97349.16
2022-09-21T11:40:40.446Z,97350.22
2022-09-21T11:43:24.093Z,97343.84
2022-09-21T11:46:06.847Z,97337.72
2022-09-21T11:48:56.949Z,97333.00
2022-09-21T11:51:45.286Z,97337.88
2022-09-21T11:54:50.136Z,97325.75
2022-09-21T11:57:26.910Z,97327.03
2022-09-21T12:00:15.635Z,97326.25
2022-09-21T12:03:44.865Z,97328.78
2022-09-21T12:06:27.080Z,97320.34
2022-09-21T12:09:39.221Z,97322.31
2022-09-21T12:12:14.499Z,97316.44
2022-09-21T12:14:51.519Z,97317.81
2022-09-21T12:17:29.410Z,97320.69
2022-09-21T12:20:13.133Z,97319.31
2022-09-21T12:22:44.822Z,97314.94
2022-09-21T12:25:19.524Z,97314.91
2022-09-21T12:27:53.163Z,97317.47
2022-09-21T12:30:23.602Z,97307.41
2022-09-21T12:33:00.114Z,97317.50
2022-09-21T12:35:39.211Z,97309.38
2022-09-21T12:38:17.679Z,97315.16
2022-09-21T12:40:53.151Z,97312.94
2022-09-21T12:43:34.897Z,97309.59
2022-09-21T12:46:08.817Z,97312.94
2022-09-21T12:48:39.858Z,97290.75
2022-09-21T12:51:17.280Z,97297.13
2022-09-21T12:53:51.052Z,97295.97
2022-09-21T12:56:37.426Z,97299.31
2022-09-21T12:59:22.669Z,97301.28
2022-09-21T13:01:58.248Z,97305.09
2022-09-21T13:04:43.623Z,97290.63
2022-09-21T13:08:10.923Z,97297.09
2022-09-21T13:10:54.862Z,97290.53
2022-09-21T13:13:31.946Z,97303.09
2022-09-21T13:16:01.931Z,97293.97
2022-09-21T13:18:36.299Z,97298.59
2022-09-21T13:21:18.247Z,97300.00
2022-09-21T13:23:56.253Z,97283.47
2022-09-21T13:26:36.728Z,97294.34
2022-09-21T13:29:30.626Z,97284.88
2022-09-21T13:32:01.933Z,97293.25
2022-09-21T13:34:36.741Z,97291.53
2022-09-21T13:37:35.393Z,97282.56
2022-09-21T13:40:50.318Z,97278.81
2022-09-21T13:43:47.082Z,97283.63
2022-09-21T13:47:01.704Z,97275.78
2022-09-21T13:49:43.392Z,97272.44
2022-09-21T13:52:28.199Z,97274.88
2022-09-21T13:55:00.604Z,97275.66
2022-09-21T13:57:37.848Z,97272.44
2022-09-21T14:00:39.266Z,97271.53
2022-09-21T14:03:22.864Z,97264.25
2022-09-21T14:05:54.465Z,97262.19
2022-09-21T14:08:30.881Z,97257.88
2022-09-21T14:11:03.938Z,97251.06
2022-09-21T14:13:37.860Z,97258.63
2022-09-21T14:17:03.291Z,97258.03
2022-09-21T14:20:06.512Z,97261.81
2022-09-21T14:22:45.367Z,97258.81
2022-09-21T14:25:53.173Z,97259.03
2022-09-21T14:28:38.275Z,97242.88
2022-09-21T14:31:16.298Z,97245.91
2022-09-21T14:33:49.646Z,97249.13
2022-09-21T14:36:29.021Z,97242.91
2022-09-21T14:39:02.501Z,97242.44
2022-09-21T14:41:41.930Z,97237.44
2022-09-21T14:44:20.744Z,97238.16
2022-09-21T14:47:15.334Z,97237.09
2022-09-21T14:50:27.824Z,97241.03
2022-09-21T14:53:34.479Z,97239.44
2022-09-21T14:56:25.598Z,97231.09
2022-09-21T14:59:21.733Z,97226.22
2022-09-21T15:02:00.161Z,97224.97
2022-09-21T15:04:46.050Z,97218.75
2022-09-21T15:07:59.613Z,97226.13
2022-09-21T15:10:53.027Z,97224.41
2022-09-21T15:13:46.469Z,97223.47
2022-09-21T15:16:39.634Z,97217.44
2022-09-21T15:19:24.668Z,97215.72
2022-09-21T15:21:55.877Z,97209.69
2022-09-21T15:24:29.479Z,97210.97
2022-09-21T15:27:11.127Z,97225.19
2022-09-21T15:29:40.219Z,97210.06
2022-09-21T15:32:09.805Z,97213.53
2022-09-21T15:34:38.358Z,97210.75
2022-09-21T15:37:18.046Z,97205.53
2022-09-21T15:39:46.161Z,97202.53
2022-09-21T15:42:22.775Z,97203.69
2022-09-21T15:44:55.117Z,97205.31
2022-09-21T15:47:28.398Z,97211.22
2022-09-21T15:49:57.070Z,97212.59
2022-09-21T15:52:35.486Z,97209.00
2022-09-21T15:55:12.626Z,97209.47
2022-09-21T15:57:44.065Z,97208.09
2022-09-21T16:00:32.210Z,97216.06
2022-09-21T16:03:06.628Z,97219.88
2022-09-21T16:05:45.781Z,97218.47
2022-09-21T16:08:28.218Z,97219.88
2022-09-21T16:11:23.141Z,97215.13
2022-09-21T16:14:22.768Z,97223.19
2022-09-21T16:17:22.018Z,97212.78
2022-09-21T16:20:20.482Z,97213.81
2022-09-21T16:22:50.897Z,97225.50
2022-09-21T16:25:34.553Z,97221.38
2022-09-21T16:28:05.635Z,97226.06
2022-09-21T16:30:46.095Z,97233.38
2022-09-21T16:34:02.545Z,97230.59
2022-09-21T16:36:43.224Z,97234.94
2022-09-21T16:39:17.531Z,97231.47
2022-09-21T16:41:53.204Z,97230.81
2022-09-21T16:44:25.419Z,97232.66
2022-09-21T16:46:57.745Z,97242.09
2022-09-21T16:49:30.668Z,97229.72
2022-09-21T16:52:01.300Z,97237.25
2022-09-21T16:54:30.822Z,97231.13
2022-09-21T16:57:02.703Z,97235.16
2022-09-21T16:59:33.098Z,97234.22
2022-09-21T17:02:04.224Z,97234.09
2022-09-21T17:04:34.909Z,97240.59
2022-09-21T17:07:05.921Z,97239.19
2022-09-21T17:09:37.985Z,97232.84
2022-09-21T17:12:08.610Z,97245.78
2022-09-21T17:14:41.877Z,97240.69
2022-09-21T17:17:17.653Z,97243.28
2022-09-21T17:19:49.205Z,97241.09
2022-09-21T17:22:20.044Z,97241.88
2022-09-21T17:24:52.080Z,97237.28
2022-09-21T17:27:23.765Z,97239.13
2022-09-21T17:29:54.230Z,97249.44
2022-09-21T17:32:24.908Z,97252.19
2022-09-21T17:35:01.738Z,97248.22
2022-09-21T17:37:33.789Z,97254.41
2022-09-21T17:40:04.953Z,97251.75
2022-09-21T17:42:42.531Z,97249.13
2022-09-21T17:45:25.111Z,97257.06
2022-09-21T17:47:54.095Z,97256.59
2022-09-21T17:50:26.926Z,97253.53
2022-09-21T17:53:15.403Z,97261.50
2022-09-21T17:55:53.780Z,97264.09
2022-09-21T17:58:43.468Z,97259.94
2022-09-21T18:01:24.184Z,97266.00
2022-09-21T18:03:53.904Z,97268.94
2022-09-21T18:06:22.821Z,97264.84
2022-09-21T18:08:53.764Z,97271.84
2022-09-21T18:12:01.751Z,97271.91
2022-09-21T18:14:41.157Z,97272.84
2022-09-21T18:17:33.542Z,97273.13
2022-09-21T18:20:20.057Z,97274.41
2022-09-21T18:23:02.193Z,97281.59
2022-09-21T18:25:35.771Z,97282.09
2022-09-21T18:28:14.939Z,97282.94
2022-09-21T18:30:51.513Z,97282.59
2022-09-21T18:33:28.125Z,97287.09
2022-09-21T18:36:09.096Z,97286.75
2022-09-21T18:38:44.235Z,97293.31
2022-09-21T18:41:32.264Z,97297.03
2022-09-21T18:44:13.043Z,97297.78
2022-09-21T18:46:54.192Z,97291.97
2022-09-21T18:49:49.462Z,97288.59
2022-09-21T18:52:31.898Z,97296.75
2022-09-21T18:55:00.343Z,97298.00
2022-09-21T18:57:32.439Z,97299.19
2022-09-21T19:00:02.058Z,97297.78
2022-09-21T19:02:30.830Z,97293.56
2022-09-21T19:05:00.301Z,97294.34
2022-09-21T19:07:40.036Z,97301.88
2022-09-21T19:10:18.942Z,97301.75
2022-09-21T19:13:06.720Z,97296.47
2022-09-21T19:16:01.682Z,97303.81
2022-09-21T19:18:41.282Z,97298.13
2022-09-21T19:21:23.909Z,97300.16
2022-09-21T19:24:07.493Z,97301.78
2022-09-21T19:26:50.145Z,97303.59
2022-09-21T19:29:50.950Z,97301.81
2022-09-21T19:32:25.782Z,97307.91
2022-09-21T19:34:57.226Z,97311.75
2022-09-21T19:37:27.567Z,97301.41
2022-09-21T19:39:56.201Z,97304.44
2022-09-21T19:42:34.285Z,97310.53
2022-09-21T19:45:17.780Z,97305.88
2022-09-21T19:47:53.348Z,97304.03
2022-09-21T19:50:27.639Z,97304.66
2022-09-21T19:53:16.383Z,97301.78
2022-09-21T19:56:07.794Z,97302.59
2022-09-21T19:58:54.235Z,97297.50
2022-09-21T20:01:24.097Z,97304.00
2022-09-21T20:03:53.648Z,97300.75
2022-09-21T20:06:26.111Z,97303.56
2022-09-21T20:09:02.598Z,97302.97
2022-09-21T20:11:42.948Z,97306.97
2022-09-21T20:14:27.031Z,97301.31
2022-09-21T20:17:00.618Z,97304.75
2022-09-21T20:19:44.395Z,97304.75
2022-09-21T20:22:15.903Z,97313.41
2022-09-21T20:24:54.630Z,97309.75
2022-09-21T20:27:34.588Z,97306.31
2022-09-21T20:30:03.364Z,97304.47
2022-09-21T20:32:34.029Z,97308.47
2022-09-21T20:35:02.035Z,97310.06
2022-09-21T20:37:30.205Z,97313.28
2022-09-21T20:39:58.212Z,97307.41
2022-09-21T20:42:26.814Z,97316.53
2022-09-21T20:44:55.266Z,97313.25
2022-09-21T20:47:23.684Z,97318.50
2022-09-21T20:49:53.002Z,97314.44
2022-09-21T20:52:20.938Z,97311.22
2022-09-21T20:54:49.722Z,97319.25
2022-09-21T20:57:18.020Z,97322.72
2022-09-21T20:59:46.116Z,97321.47
2022-09-21T21:02:16.527Z,97318.41
2022-09-21T21:04:44.867Z,97320.88
2022-09-21T21:07:14.177Z,97317.41
2022-09-21T21:09:42.160Z,97324.25
2022-09-21T21:12:10.548Z,97327.31
2022-09-21T21:14:38.542Z,97324.00
2022-09-21T21:17:07.081Z,97327.75
2022-09-21T21:19:35.533Z,97327.19
2022-09-21T21:22:03.529Z,97323.50
2022-09-21T21:24:42.019Z,97324.72
2022-09-21T21:27:16.215Z,97326.47
2022-09-21T21:29:46.065Z,97318.34
2022-09-21T21:32:15.122Z,97327.44
2022-09-21T21:34:43.427Z,97325.44
2022-09-21T21:37:12.312Z,97323.56
2022-09-21T21:39:41.629Z,97322.19
2022-09-21T21:42:10.326Z,97326.81
2022-09-21T21:44:38.639Z,97320.75
2022-09-21T21:47:27.840Z,97315.69
2022-09-21T21:49:55.212Z,97315.41
2022-09-21T21:52:23.443Z,97312.84
2022-09-21T21:54:52.769Z,97315.41
2022-09-21T21:57:20.743Z,97313.41
2022-09-21T21:59:48.693Z,97319.50
2022-09-21T22:02:16.808Z,97316.28
2022-09-21T22:05:09.057Z,97311.66
2022-09-21T22:07:37.743Z,97315.34
2022-09-21T22:10:09.822Z,97311.47
2022-09-21T22:12:37.909Z,97304.78
2022-09-21T22:15:07.044Z,97303.72
2022-09-21T22:17:36.217Z,97303.25
2022-09-21T22:20:04.473Z,97304.56
2022-09-21T22:22:32.491Z,97302.69
2022-09-21T22:25:00.467Z,97311.44
2022-09-21T22:27:29.931Z,97303.03
2022-09-21T22:29:57.933Z,97298.97
2022-09-21T22:32:26.113Z,97302.16
2022-09-21T22:34:54.259Z,97299.75
2022-09-21T22:37:22.275Z,97299.16
2022-09-21T22:39:50.268Z,97302.63
2022-09-21T22:42:18.219Z,97306.94
2022-09-21T22:44:47.821Z,97299.41
2022-09-21T22:47:15.770Z,97303.59
2022-09-21T22:49:43.774Z,97303.59
2022-09-21T22:52:11.720Z,97298.47
2022-09-21T22:54:39.702Z,97303.19
2022-09-21T22:57:07.682Z,97298.28
2022-09-21T22:59:35.718Z,97299.06
2022-09-21T23:02:08.388Z,97301.47
2022-09-21T23:04:36.525Z,97287.53
2022-09-21T23:07:04.691Z,97300.22
2022-09-21T23:09:32.702Z,97300.41
2022-09-21T23:12:00.893Z,97298.72
2022-09-21T23:14:28.902Z,97293.03
2022-09-21T23:16:56.878Z,97299.22
2022-09-21T23:19:26.364Z,97293.53
2022-09-21T23:21:54.912Z,97286.00
2022-09-21T23:24:22.893Z,97287.38
2022-09-21T23:26:51.631Z,97288.28
2022-09-21T23:29:19.832Z,97287.09
2022-09-21T23:31:49.954Z,97281.81
2022-09-21T23:34:18.241Z,97279.97
2022-09-21T23:36:47.611Z,97278.19
2022-09-21T23:39:16.681Z,97278.19
2022-09-21T23:41:45.421Z,97270.06
2022-09-21T23:44:13.875Z,97274.47
2022-09-21T23:46:43.152Z,97283.63
2022-09-21T23:49:11.657Z,97284.50
2022-09-21T23:51:40.345Z,97279.84
2022-09-21T23:54:10.797Z,97281.84
2022-09-21T23:56:38.930Z,97274.53
2022-09-21T23:59:06.928Z,97273.44
